Time;durP1;ratioP1;P1;durP2;ratioP2;P2;SDS_P1;SDS_P2;PMS_P1;PMS_P2;Temp;Humidity;BMP_temperature;BMP_pressure;BME280_temperature;BME280_humidity;BME280_pressure;Samples;Min_cycle;Max_cycle;Signal;HPM_P1;HPM_P2
2022/04/05 00:02:17;;;;;;;18.55;12.93;;;;;;;3.74;84.06;98726.80;1755125;80;26281;-63
2022/04/05 00:04:43;;;;;;;19.57;14.00;;;;;;;3.73;84.45;98736.53;1761675;79;98856;-63
2022/04/05 00:07:11;;;;;;;19.85;13.05;;;;;;;3.77;84.37;98739.91;1750506;80;27349;-63
2022/04/05 00:09:37;;;;;;;19.02;13.00;;;;;;;3.77;83.90;98718.70;1755538;80;25797;-63
2022/04/05 00:12:04;;;;;;;19.15;14.20;;;;;;;3.77;84.24;98734.14;1752458;79;98525;-63
2022/04/05 00:14:30;;;;;;;18.00;13.60;;;;;;;3.79;84.27;98732.74;1754790;79;26429;-62
2022/04/05 00:16:58;;;;;;;19.00;13.90;;;;;;;3.80;84.15;98719.89;1754646;79;98690;-63
2022/04/05 00:19:25;;;;;;;21.90;13.78;;;;;;;3.81;84.08;98716.30;1757710;79;27379;-63
2022/04/05 00:21:54;;;;;;;18.30;13.78;;;;;;;3.82;84.15;98716.70;1755973;79;27106;-63
2022/04/05 00:24:22;;;;;;;20.57;13.20;;;;;;;3.84;84.14;98721.00;1762258;79;98587;-63
2022/04/05 00:26:49;;;;;;;18.62;13.53;;;;;;;3.87;84.05;98710.25;1757702;79;25847;-63
2022/04/05 00:29:14;;;;;;;18.62;13.32;;;;;;;3.88;84.08;98704.02;1750083;80;98501;-62
2022/04/05 00:31:40;;;;;;;20.17;14.45;;;;;;;3.93;84.25;98697.64;1753477;80;27511;-63
2022/04/05 00:34:07;;;;;;;17.15;12.85;;;;;;;3.95;84.21;98702.41;1754581;79;34159;-63
2022/04/05 00:36:37;;;;;;;18.25;13.08;;;;;;;3.97;84.28;98701.41;1750191;80;98931;-63
2022/04/05 00:39:04;;;;;;;20.27;13.32;;;;;;;4.00;84.12;98703.05;1753655;79;25793;-63
2022/04/05 00:41:30;;;;;;;15.10;12.00;;;;;;;4.04;84.44;98713.43;1758924;80;98506;-63
2022/04/05 00:43:57;;;;;;;18.00;13.38;;;;;;;4.09;84.21;98702.61;1753364;79;27497;-63
2022/04/05 00:46:24;;;;;;;16.45;12.07;;;;;;;4.11;84.27;98689.67;1745685;79;98675;-63
2022/04/05 00:48:57;;;;;;;14.90;11.88;;;;;;;4.14;84.16;98691.31;1748879;81;26434;-63
2022/04/05 00:51:26;;;;;;;16.65;12.33;;;;;;;4.20;84.20;98695.86;1753544;79;25772;-63
2022/04/05 00:53:59;;;;;;;17.55;12.58;;;;;;;4.20;83.97;98686.58;1758780;79;98546;-63
2022/04/05 00:56:28;;;;;;;15.25;11.90;;;;;;;4.24;84.24;98708.03;1752326;80;27423;-63
2022/04/05 00:58:58;;;;;;;14.78;11.22;;;;;;;4.32;84.14;98705.00;1750429;80;98809;-62
2022/04/05 01:01:27;;;;;;;14.95;12.82;;;;;;;4.38;84.20;98679.97;1742743;80;25699;-64
2022/04/05 01:03:54;;;;;;;15.32;11.68;;;;;;;4.43;84.12;98694.73;1739547;80;26709;-64
2022/04/05 01:06:30;;;;;;;14.68;10.58;;;;;;;4.48;84.00;98691.84;1742897;80;98512;-63
2022/04/05 01:08:58;;;;;;;19.17;12.70;;;;;;;4.52;83.99;98718.61;1744720;80;27624;-63
2022/04/05 01:11:24;;;;;;;17.70;12.00;;;;;;;4.49;83.66;98701.05;1742914;80;98584;-62
2022/04/05 01:13:52;;;;;;;16.25;11.97;;;;;;;4.50;83.65;98688.65;1750350;80;25755;-63
2022/04/05 01:16:19;;;;;;;16.17;12.05;;;;;;;4.51;83.72;98700.52;1747252;80;26084;-62
2022/04/05 01:18:45;;;;;;;18.55;12.18;;;;;;;4.49;83.59;98701.05;1748326;80;98331;-62
2022/04/05 01:21:10;;;;;;;15.00;10.98;;;;;;;4.50;83.56;98701.91;1742734;80;27426;-62
2022/04/05 01:23:45;;;;;;;14.85;11.50;;;;;;;4.51;83.59;98695.67;1743126;80;98491;-62
2022/04/05 01:26:12;;;;;;;14.28;11.30;;;;;;;4.47;83.65;98724.61;1736363;80;25923;-63
2022/04/05 01:28:38;;;;;;;12.78;10.85;;;;;;;4.46;83.65;98695.05;1744559;80;98961;-62
2022/04/05 01:31:04;;;;;;;15.80;10.45;;;;;;;4.48;83.92;98709.95;1748025;80;25859;-62
2022/04/05 01:33:30;;;;;;;12.60;11.10;;;;;;;4.52;83.90;98715.96;1740747;80;27493;-63
2022/04/05 01:35:55;;;;;;;14.78;11.55;;;;;;;4.49;83.98;98721.42;1736963;80;98543;-64
2022/04/05 01:38:21;;;;;;;13.75;9.53;;;;;;;4.46;83.86;98705.66;1752186;80;30521;-64
2022/04/05 01:40:47;;;;;;;10.40;8.00;;;;;;;4.36;84.06;98703.06;1741129;80;98589;-64
2022/04/05 01:43:13;;;;;;;9.75;7.22;;;;;;;4.32;84.02;98706.80;1751108;80;25772;-65
2022/04/05 01:45:42;;;;;;;7.17;5.62;;;;;;;4.32;83.94;98721.38;1741688;80;29482;-65
2022/04/05 01:48:08;;;;;;;9.65;6.78;;;;;;;4.30;84.06;98712.64;1741765;80;97221;-64
2022/04/05 01:50:34;;;;;;;9.23;7.00;;;;;;;4.24;84.02;98721.76;1743343;80;30480;-64
2022/04/05 01:53:00;;;;;;;9.63;8.28;;;;;;;4.20;83.91;98721.52;1742314;80;99187;-65
2022/04/05 01:55:26;;;;;;;10.08;7.22;;;;;;;4.18;84.26;98708.80;1751135;80;25703;-65
2022/04/05 01:57:51;;;;;;;12.93;10.13;;;;;;;4.18;84.26;98720.72;1752375;79;27532;-65
2022/04/05 02:00:17;;;;;;;16.60;12.45;;;;;;;4.15;84.24;98715.56;1726699;80;98662;-65
2022/04/05 02:02:46;;;;;;;15.03;11.35;;;;;;;4.14;84.85;98716.50;1696258;82;30455;-65
2022/04/05 02:05:12;;;;;;;17.85;11.95;;;;;;;4.13;84.34;98721.41;1738126;80;97673;-64
2022/04/05 02:07:41;;;;;;;16.73;12.28;;;;;;;4.13;84.54;98707.69;1698560;82;25791;-64
2022/04/05 02:10:08;;;;;;;20.80;12.88;;;;;;;4.12;84.21;98717.91;1759935;79;27482;-63
2022/04/05 02:12:34;;;;;;;18.35;13.20;;;;;;;4.12;84.25;98719.23;1763881;79;98432;-64
2022/04/05 02:15:00;;;;;;;20.32;12.65;;;;;;;4.13;84.53;98737.32;1720465;82;31033;-64
2022/04/05 02:17:26;;;;;;;16.97;12.10;;;;;;;4.16;84.50;98723.45;1722733;80;98536;-65
2022/04/05 02:19:52;;;;;;;18.20;12.65;;;;;;;4.19;84.55;98710.52;1730810;80;26562;-64
2022/04/05 02:22:23;;;;;;;16.12;10.72;;;;;;;4.18;84.47;98716.28;1730302;80;27512;-64
2022/04/05 02:24:51;;;;;;;17.70;11.83;;;;;;;4.21;84.79;98720.58;1727358;80;97451;-64
2022/04/05 02:27:17;;;;;;;13.48;10.75;;;;;;;4.21;84.65;98702.02;1735014;80;25845;-63
2022/04/05 02:29:44;;;;;;;18.80;12.28;;;;;;;4.22;84.85;98709.89;1737950;80;98643;-64
2022/04/05 02:32:10;;;;;;;16.27;11.15;;;;;;;4.23;84.67;98720.03;1735563;80;25860;-64
2022/04/05 02:34:39;;;;;;;12.88;9.43;;;;;;;4.26;84.83;98719.03;1766771;79;98568;-65
2022/04/05 02:37:06;;;;;;;9.80;7.65;;;;;;;4.28;84.88;98722.00;1758645;79;27256;-64
2022/04/05 02:39:32;;;;;;;10.20;7.30;;;;;;;4.31;85.37;98743.06;1762621;79;26459;-64
2022/04/05 02:41:58;;;;;;;8.38;6.87;;;;;;;4.34;85.10;98728.80;1757291;79;98459;-64
2022/04/05 02:44:24;;;;;;;11.85;6.45;;;;;;;4.37;85.12;98727.33;1761019;79;25843;-64
2022/04/05 02:46:50;;;;;;;10.03;6.50;;;;;;;4.38;85.40;98728.58;1766817;79;98835;-64
2022/04/05 02:49:18;;;;;;;12.65;6.60;;;;;;;4.40;85.53;98741.30;1770597;79;33537;-64
2022/04/05 02:51:44;;;;;;;7.53;5.70;;;;;;;4.38;85.33;98731.23;1727479;80;25825;-64
2022/04/05 02:54:10;;;;;;;4.97;3.92;;;;;;;4.35;85.21;98744.64;1698987;82;97317;-64
2022/04/05 02:56:35;;;;;;;6.70;5.30;;;;;;;4.36;85.42;98740.19;1706417;82;25759;-64
2022/04/05 02:59:03;;;;;;;6.40;4.80;;;;;;;4.34;85.32;98750.87;1730624;80;98424;-63
2022/04/05 03:01:32;;;;;;;5.35;4.47;;;;;;;4.33;85.10;98737.69;1739724;80;25810;-65
2022/04/05 03:04:01;;;;;;;5.50;4.03;;;;;;;4.29;84.97;98741.42;1733952;80;26294;-64
2022/04/05 03:06:29;;;;;;;5.55;4.55;;;;;;;4.28;84.92;98747.19;1734867;80;98237;-63
2022/04/05 03:08:56;;;;;;;6.90;4.40;;;;;;;4.25;84.91;98763.25;1734272;80;25804;-64
2022/04/05 03:11:24;;;;;;;6.00;4.58;;;;;;;4.23;84.93;98769.95;1734649;80;98244;-70
2022/04/05 03:13:51;;;;;;;7.30;4.58;;;;;;;4.21;84.84;98773.14;1737629;80;25789;-64
2022/04/05 03:16:17;;;;;;;7.20;4.40;;;;;;;4.20;84.89;98746.23;1745220;80;30373;-66
2022/04/05 03:18:46;;;;;;;4.95;4.05;;;;;;;4.20;84.85;98758.63;1745698;80;98261;-65
2022/04/05 03:21:10;;;;;;;6.87;4.72;;;;;;;4.17;84.89;98751.69;1736506;80;25805;-63
2022/04/05 03:23:36;;;;;;;6.70;5.15;;;;;;;4.19;84.85;98757.77;1734400;80;98308;-63
2022/04/05 03:26:09;;;;;;;6.28;4.40;;;;;;;4.17;84.84;98782.17;1742959;80;33711;-65
2022/04/05 03:28:38;;;;;;;6.10;4.55;;;;;;;4.21;84.88;98753.72;1707982;81;98472;-65
2022/04/05 03:31:04;;;;;;;6.95;4.70;;;;;;;4.20;84.70;98747.56;1734562;80;26082;-65
2022/04/05 03:33:30;;;;;;;7.78;4.50;;;;;;;4.21;84.53;98744.44;1734456;80;25748;-65
2022/04/05 03:35:58;;;;;;;8.65;4.67;;;;;;;4.20;84.48;98754.19;1734885;80;98138;-63
2022/04/05 03:38:27;;;;;;;5.65;4.05;;;;;;;4.17;84.33;98750.36;1735342;80;25666;-63
2022/04/05 03:40:54;;;;;;;8.45;4.97;;;;;;;4.18;84.26;98752.55;1730921;80;98337;-63
2022/04/05 03:43:21;;;;;;;8.93;4.12;;;;;;;4.15;84.05;98745.59;1736041;80;25831;-66
2022/04/05 03:45:47;;;;;;;8.40;4.35;;;;;;;4.16;84.05;98747.31;1734858;80;25845;-64
2022/04/05 03:48:15;;;;;;;7.97;3.33;;;;;;;4.14;83.89;98754.48;1732280;80;98059;-63
2022/04/05 03:50:43;;;;;;;7.78;3.62;;;;;;;4.10;83.71;98762.66;1732846;80;25887;-64
2022/04/05 03:53:10;;;;;;;5.85;4.17;;;;;;;4.08;83.58;98760.08;1723290;80;98402;-64
2022/04/05 03:55:37;;;;;;;6.60;3.75;;;;;;;4.07;83.47;98754.38;1731339;80;25825;-64
2022/04/05 03:58:04;;;;;;;4.75;3.27;;;;;;;4.06;83.48;98747.82;1746292;79;25972;-64
2022/04/05 04:00:30;;;;;;;8.18;4.42;;;;;;;4.04;83.42;98770.42;1759508;79;97469;-64
2022/04/05 04:02:56;;;;;;;10.82;3.90;;;;;;;4.05;83.28;98761.54;1740247;79;33260;-63
2022/04/05 04:05:22;;;;;;;6.67;3.77;;;;;;;4.02;83.13;98781.56;1768175;79;98379;-64
2022/04/05 04:07:49;;;;;;;6.47;3.98;;;;;;;4.03;83.13;98774.02;1767290;79;25824;-63
2022/04/05 04:10:18;;;;;;;7.85;3.72;;;;;;;4.03;83.06;98763.41;1768992;79;25726;-63
2022/04/05 04:12:44;;;;;;;7.03;3.87;;;;;;;4.04;82.98;98769.09;1768693;79;97075;-63
2022/04/05 04:15:10;;;;;;;9.43;4.25;;;;;;;4.04;82.91;98776.20;1761946;79;33678;-64
2022/04/05 04:17:36;;;;;;;8.15;3.87;;;;;;;4.05;82.82;98780.09;1771020;79;97354;-63
2022/04/05 04:20:05;;;;;;;8.23;3.45;;;;;;;4.04;82.81;98775.73;1761510;79;26205;-64
2022/04/05 04:22:31;;;;;;;7.45;3.55;;;;;;;4.03;82.75;98788.59;1757646;79;98268;-63
2022/04/05 04:24:57;;;;;;;5.10;3.52;;;;;;;4.06;82.68;98776.98;1768512;79;27893;-64
2022/04/05 04:27:26;;;;;;;6.03;3.17;;;;;;;4.04;82.58;98781.03;1765178;79;25869;-63
2022/04/05 04:29:52;;;;;;;7.03;3.30;;;;;;;4.04;82.58;98792.95;1769166;79;98184;-62
2022/04/05 04:32:20;;;;;;;6.72;2.92;;;;;;;4.05;82.43;98791.17;1763477;79;26084;-64
2022/04/05 04:34:48;;;;;;;6.97;3.40;;;;;;;4.07;82.28;98794.61;1768346;79;98343;-63
2022/04/05 04:37:14;;;;;;;7.95;2.80;;;;;;;4.05;82.20;98799.13;1763920;79;27523;-64
2022/04/05 04:39:40;;;;;;;10.03;4.35;;;;;;;4.03;82.10;98809.80;1771821;79;25726;-64
2022/04/05 04:42:07;;;;;;;6.90;2.83;;;;;;;4.02;82.03;98807.22;1767259;79;98405;-63
2022/04/05 04:44:34;;;;;;;9.45;3.60;;;;;;;4.02;81.88;98819.14;1734599;79;25847;-63
2022/04/05 04:47:00;;;;;;;8.35;3.30;;;;;;;4.02;81.80;98830.61;1761525;79;98353;-64
2022/04/05 04:49:28;;;;;;;9.00;2.72;;;;;;;4.01;81.74;98834.19;1766183;79;27426;-64
2022/04/05 04:51:53;;;;;;;9.00;3.33;;;;;;;4.00;81.60;98822.33;1767789;79;25767;-64
2022/04/05 04:54:21;;;;;;;5.60;2.35;;;;;;;3.99;81.59;98846.66;1758807;79;97388;-64
2022/04/05 04:56:47;;;;;;;19.32;3.05;;;;;;;4.00;81.46;98826.31;1764501;79;25771;-64
2022/04/05 04:59:13;;;;;;;2.33;1.60;;;;;;;4.01;81.31;98833.33;1765432;79;98414;-64
2022/04/05 05:01:43;;;;;;;8.95;1.95;;;;;;;3.99;81.21;98832.54;1761315;79;27486;-64
2022/04/05 05:04:11;;;;;;;12.95;2.45;;;;;;;3.99;80.84;98836.52;1766342;79;25793;-63
2022/04/05 05:06:37;;;;;;;17.77;2.33;;;;;;;4.02;80.77;98845.66;1766425;79;98342;-65
2022/04/05 05:09:03;;;;;;;7.42;2.15;;;;;;;4.03;80.40;98844.26;1757522;79;25734;-63
2022/04/05 05:11:32;;;;;;;7.67;1.72;;;;;;;4.06;80.44;98856.05;1766265;79;98171;-64
2022/04/05 05:13:57;;;;;;;6.42;1.87;;;;;;;4.06;80.25;98846.77;1758549;79;27335;-63
2022/04/05 05:16:23;;;;;;;7.80;2.02;;;;;;;4.10;80.13;98854.12;1761430;79;33668;-63
2022/04/05 05:18:50;;;;;;;6.28;2.87;;;;;;;4.13;79.98;98862.80;1770586;79;98053;-64
2022/04/05 05:21:19;;;;;;;9.40;2.17;;;;;;;4.16;79.90;98863.12;1761220;79;25918;-64
2022/04/05 05:23:46;;;;;;;15.25;1.90;;;;;;;4.19;79.65;98879.75;1760773;79;97351;-64
2022/04/05 05:26:14;;;;;;;9.78;2.15;;;;;;;4.21;79.51;98862.44;1766749;79;27120;-64
2022/04/05 05:28:42;;;;;;;8.60;2.17;;;;;;;4.23;79.25;98865.42;1754673;79;98474;-64
2022/04/05 05:31:11;;;;;;;8.83;2.05;;;;;;;4.22;79.21;98858.39;1763545;79;25748;-64
2022/04/05 05:33:41;;;;;;;13.40;2.37;;;;;;;4.26;78.88;98874.16;1763082;79;25913;-63
2022/04/05 05:36:09;;;;;;;10.82;2.17;;;;;;;4.29;78.79;98876.67;1764376;79;98325;-64
2022/04/05 05:38:37;;;;;;;12.95;2.42;;;;;;;4.31;78.63;98885.42;1763673;79;27392;-63
2022/04/05 05:41:06;;;;;;;10.15;2.25;;;;;;;4.30;78.35;98892.52;1768610;79;98545;-64
2022/04/05 05:43:33;;;;;;;10.35;1.85;;;;;;;4.30;78.18;98892.52;1772821;79;25980;-63
2022/04/05 05:46:03;;;;;;;10.40;2.98;;;;;;;4.32;77.71;98901.27;1768199;79;26345;-64
2022/04/05 05:48:32;;;;;;;11.38;2.12;;;;;;;4.35;77.76;98915.71;1767440;79;98832;-64
2022/04/05 05:50:58;;;;;;;14.68;1.98;;;;;;;4.36;77.37;98892.70;1774235;79;27369;-64
2022/04/05 05:53:27;;;;;;;11.22;2.85;;;;;;;4.40;77.21;98910.20;1761967;79;98634;-64
2022/04/05 05:55:53;;;;;;;23.55;4.20;;;;;;;4.39;76.88;98899.19;1764200;79;25796;-63
2022/04/05 05:58:19;;;;;;;6.28;1.80;;;;;;;4.38;76.72;98920.88;1765743;79;25925;-64
2022/04/05 06:00:46;;;;;;;8.28;2.22;;;;;;;4.40;76.26;98926.97;1755083;79;98197;-63
2022/04/05 06:03:13;;;;;;;11.50;1.92;;;;;;;4.41;76.11;98926.05;1762792;79;29576;-63
2022/04/05 06:05:42;;;;;;;5.65;1.90;;;;;;;4.44;75.60;98931.67;1728685;81;98989;-64
2022/04/05 06:08:08;;;;;;;12.65;2.30;;;;;;;4.47;75.68;98927.55;1736562;81;25779;-64
2022/04/05 06:10:34;;;;;;;12.40;1.70;;;;;;;4.50;75.56;98935.38;1728379;81;99056;-64
2022/04/05 06:13:02;;;;;;;8.25;2.30;;;;;;;4.50;75.10;98938.02;1738277;81;26996;-63
2022/04/05 06:15:29;;;;;;;8.90;1.40;;;;;;;4.53;74.65;98947.17;1699304;82;27404;-63
2022/04/05 06:17:58;;;;;;;10.28;1.80;;;;;;;4.55;74.07;98936.02;1695415;82;98279;-63
2022/04/05 06:20:27;;;;;;;9.43;1.98;;;;;;;4.54;73.77;98955.06;1697443;82;26409;-64
2022/04/05 06:22:57;;;;;;;4.50;1.35;;;;;;;4.54;73.34;98940.93;1726879;81;98468;-63
2022/04/05 06:25:32;;;;;;;9.85;2.20;;;;;;;4.56;72.95;98952.34;1737052;81;25774;-63
2022/04/05 06:28:05;;;;;;;7.20;1.47;;;;;;;4.57;72.89;98951.41;1704536;82;29555;-64
2022/04/05 06:30:33;;;;;;;8.23;1.62;;;;;;;4.60;72.24;98965.00;1766109;79;98573;-62
2022/04/05 06:33:19;;;;;;;7.30;2.00;;;;;;;4.57;72.35;98958.03;1762574;79;26008;-62
2022/04/05 06:35:50;;;;;;;15.85;2.25;;;;;;;4.61;72.25;98966.72;1762326;79;98125;-62
2022/04/05 06:38:18;;;;;;;15.50;3.00;;;;;;;4.63;71.93;98954.24;1763934;79;25686;-64
2022/04/05 06:40:44;;;;;;;11.95;2.02;;;;;;;4.67;72.16;98965.11;1765831;79;98687;-63
2022/04/05 06:43:14;;;;;;;8.73;1.67;;;;;;;4.69;71.64;98984.02;1775591;79;25775;-64
2022/04/05 06:45:44;;;;;;;14.43;2.05;;;;;;;4.72;71.56;98961.78;1763240;79;25802;-63
2022/04/05 06:48:10;;;;;;;12.58;1.80;;;;;;;4.72;71.27;98967.95;1754717;79;98401;-61
2022/04/05 06:50:38;;;;;;;6.80;2.05;;;;;;;4.75;71.32;98991.69;1760411;79;26434;-62
2022/04/05 06:53:06;;;;;;;14.75;2.60;;;;;;;4.79;71.38;98981.33;1752903;79;98346;-62
2022/04/05 06:55:34;;;;;;;10.80;2.33;;;;;;;4.84;70.74;98984.63;1759979;79;25799;-61
2022/04/05 06:58:03;;;;;;;13.10;1.85;;;;;;;4.91;70.81;98981.69;1767364;79;25773;-62
2022/04/05 07:00:33;;;;;;;17.48;2.60;;;;;;;4.96;70.79;98988.51;1771493;79;98334;-64
2022/04/05 07:03:01;;;;;;;11.45;2.58;;;;;;;4.98;70.67;98985.78;1758556;79;25773;-62
2022/04/05 07:05:28;;;;;;;6.08;1.85;;;;;;;5.01;70.84;99007.73;1759011;79;98337;-63
2022/04/05 07:07:56;;;;;;;12.33;2.08;;;;;;;5.00;70.48;98992.73;1755442;79;25828;-62
2022/04/05 07:10:23;;;;;;;8.03;2.10;;;;;;;5.03;69.73;98997.91;1756966;79;25813;-63
2022/04/05 07:12:50;;;;;;;15.48;3.45;;;;;;;5.04;69.04;99006.27;1766820;79;98036;-63
2022/04/05 07:15:17;;;;;;;12.18;2.35;;;;;;;5.02;69.23;99007.27;1768120;79;25743;-63
2022/04/05 07:17:44;;;;;;;21.70;2.83;;;;;;;5.03;68.39;99003.68;1764762;79;98487;-62
2022/04/05 07:20:11;;;;;;;12.03;2.25;;;;;;;5.03;67.93;99030.23;1764235;79;25879;-63
2022/04/05 07:22:48;;;;;;;10.85;1.95;;;;;;;5.06;67.88;99012.83;1768409;79;98591;-63
2022/04/05 07:25:16;;;;;;;19.40;2.62;;;;;;;5.08;66.74;99012.30;1762943;79;26987;-62
2022/04/05 07:27:45;;;;;;;17.70;2.92;;;;;;;5.09;67.19;98996.29;1756456;79;25761;-62
2022/04/05 07:30:13;;;;;;;11.60;2.45;;;;;;;5.16;67.47;99015.45;1769577;79;98451;-62
2022/04/05 07:32:42;;;;;;;12.95;2.35;;;;;;;5.18;67.42;98998.97;1765031;79;25717;-62
2022/04/05 07:35:12;;;;;;;10.53;2.55;;;;;;;5.19;67.17;99013.98;1764398;79;98539;-62
2022/04/05 07:37:38;;;;;;;13.15;2.67;;;;;;;5.21;67.03;99020.91;1758961;79;25784;-64
2022/04/05 07:40:10;;;;;;;13.35;2.15;;;;;;;5.21;67.18;99016.92;1764334;79;25730;-61
2022/04/05 07:42:37;;;;;;;13.25;1.87;;;;;;;5.31;66.34;99039.92;1767169;79;98383;-62
2022/04/05 07:45:05;;;;;;;10.08;1.90;;;;;;;5.31;66.31;99017.34;1764313;79;26604;-61
2022/04/05 07:47:33;;;;;;;13.00;2.50;;;;;;;5.37;66.22;99022.83;1763695;79;98268;-62
2022/04/05 07:50:00;;;;;;;9.75;1.98;;;;;;;5.38;66.03;99014.78;1765527;79;25818;-63
2022/04/05 07:52:27;;;;;;;10.35;2.22;;;;;;;5.47;65.88;99024.97;1763622;79;25842;-61
2022/04/05 07:54:54;;;;;;;13.05;3.35;;;;;;;5.53;66.29;99026.47;1766151;79;98290;-63
2022/04/05 07:57:22;;;;;;;11.35;1.98;;;;;;;5.60;65.89;99029.22;1756022;79;26383;-62
2022/04/05 07:59:47;;;;;;;27.42;3.17;;;;;;;5.61;65.66;99024.77;1760088;79;98436;-63
2022/04/05 08:02:13;;;;;;;18.55;3.55;;;;;;;5.60;64.77;99031.02;1764157;79;25778;-62
2022/04/05 08:04:39;;;;;;;14.73;2.12;;;;;;;5.61;64.59;99039.39;1763048;79;98480;-64
2022/04/05 08:07:06;;;;;;;8.20;1.85;;;;;;;5.58;64.00;99019.60;1766760;79;29708;-62
2022/04/05 08:09:34;;;;;;;7.62;1.80;;;;;;;5.55;63.28;99032.57;1767311;79;26690;-63
2022/04/05 08:12:02;;;;;;;12.33;2.08;;;;;;;5.57;63.64;99043.98;1764071;79;98193;-64
2022/04/05 08:14:31;;;;;;;8.90;2.30;;;;;;;5.64;63.28;99039.23;1761553;79;25822;-64
2022/04/05 08:16:58;;;;;;;11.43;2.58;;;;;;;5.67;63.49;99042.61;1758393;79;98337;-65
2022/04/05 08:19:25;;;;;;;9.20;1.95;;;;;;;5.75;62.79;99031.59;1761035;79;27498;-65
2022/04/05 08:21:54;;;;;;;10.18;1.55;;;;;;;5.81;62.40;99064.53;1759041;79;25951;-63
2022/04/05 08:24:22;;;;;;;13.78;1.90;;;;;;;5.79;61.91;99043.80;1763343;79;98301;-63
2022/04/05 08:26:48;;;;;;;7.87;1.65;;;;;;;5.81;62.24;99048.11;1763071;79;25721;-64
2022/04/05 08:29:13;;;;;;;9.45;1.50;;;;;;;5.91;62.48;99048.54;1759422;79;98283;-63
2022/04/05 08:31:39;;;;;;;7.65;1.52;;;;;;;6.03;61.76;99062.56;1762423;79;27459;-63
2022/04/05 08:34:05;;;;;;;13.48;2.00;;;;;;;6.11;61.37;99070.16;1753972;79;26034;-66
2022/04/05 08:36:32;;;;;;;7.05;1.37;;;;;;;6.11;60.97;99060.38;1761284;79;98377;-64
2022/04/05 08:38:58;;;;;;;10.80;2.15;;;;;;;6.08;60.70;99062.33;1762965;79;26152;-63
2022/04/05 08:41:26;;;;;;;11.45;2.40;;;;;;;6.07;59.49;99063.27;1764726;79;98466;-64
2022/04/05 08:43:52;;;;;;;9.73;1.92;;;;;;;6.05;60.35;99066.00;1761164;79;27471;-66
2022/04/05 08:46:22;;;;;;;9.45;2.17;;;;;;;6.13;60.29;99078.91;1760744;79;26079;-65
2022/04/05 08:48:50;;;;;;;12.68;2.08;;;;;;;6.19;59.95;99082.12;1766195;79;98101;-63
2022/04/05 08:51:18;;;;;;;9.85;1.77;;;;;;;6.27;59.94;99075.09;1771067;79;25679;-64
2022/04/05 08:53:48;;;;;;;14.80;2.80;;;;;;;6.28;59.36;99082.13;1757190;79;98214;-64
2022/04/05 08:56:17;;;;;;;12.97;3.30;;;;;;;6.23;58.76;99100.13;1767790;79;27329;-65
2022/04/05 08:58:44;;;;;;;6.30;2.17;;;;;;;6.22;59.35;99092.23;1764297;79;98538;-64
2022/04/05 09:01:10;;;;;;;8.78;1.92;;;;;;;6.30;58.83;99113.52;1764065;79;25823;-63
2022/04/05 09:03:36;;;;;;;11.57;1.82;;;;;;;6.31;58.08;99107.26;1757459;79;25805;-64
2022/04/05 09:06:29;;;;;;;10.13;1.57;;;;;;;6.28;58.58;99089.26;1751570;79;97470;-63
2022/04/05 09:09:10;;;;;;;6.03;1.60;;;;;;;6.28;57.44;99081.27;1762131;79;26819;-64
2022/04/05 09:11:49;;;;;;;7.60;1.72;;;;;;;6.40;57.42;99105.46;1759870;79;97288;-62
2022/04/05 09:14:26;;;;;;;9.78;2.40;;;;;;;6.43;57.52;99094.66;1760411;79;26010;-63
2022/04/05 09:17:14;;;;;;;10.35;2.33;;;;;;;6.55;57.68;99103.81;1755336;79;98249;-65
2022/04/05 09:19:48;;;;;;;6.67;1.75;;;;;;;6.68;57.37;99095.59;1765030;79;26448;-63
2022/04/05 09:22:33;;;;;;;16.62;2.47;;;;;;;6.75;56.80;99102.78;1725876;80;27487;-65
2022/04/05 09:25:12;;;;;;;11.93;2.10;;;;;;;6.69;56.50;99099.97;1727225;81;98298;-65
2022/04/05 09:27:55;;;;;;;11.80;2.47;;;;;;;6.61;57.01;99110.16;1727065;80;26123;-63
2022/04/05 09:30:29;;;;;;;12.00;2.35;;;;;;;6.73;57.36;99101.53;1690303;82;98325;-64
2022/04/05 09:32:59;;;;;;;13.50;2.75;;;;;;;6.79;56.81;99117.19;1724359;81;25359;-64
2022/04/05 09:35:41;;;;;;;12.28;2.77;;;;;;;6.84;56.42;99113.81;1721512;82;98477;-65
2022/04/05 09:38:16;;;;;;;8.43;1.87;;;;;;;6.91;55.41;99122.81;1732138;81;26694;-66
2022/04/05 09:40:44;;;;;;;8.30;2.47;;;;;;;6.93;56.61;99124.45;1764636;79;98268;-65
2022/04/05 09:43:15;;;;;;;11.28;2.05;;;;;;;6.94;56.19;99118.19;1768736;79;25853;-65
2022/04/05 09:45:51;;;;;;;14.75;2.08;;;;;;;6.94;55.42;99150.62;1766694;79;25791;-66
2022/04/05 09:48:21;;;;;;;6.67;1.80;;;;;;;6.77;55.54;99134.19;1765201;79;98511;-63
2022/04/05 09:51:09;;;;;;;17.10;2.47;;;;;;;6.75;55.85;99130.27;1761378;79;25830;-63
2022/04/05 09:53:43;;;;;;;15.45;2.87;;;;;;;6.80;55.89;99140.22;1763071;79;98345;-64
2022/04/05 09:56:26;;;;;;;7.12;2.15;;;;;;;6.83;55.17;99159.17;1760979;79;27885;-64
2022/04/05 09:58:56;;;;;;;9.30;1.47;;;;;;;6.82;54.04;99146.32;1756481;79;98337;-64
2022/04/05 10:01:28;;;;;;;5.95;2.10;;;;;;;6.75;54.51;99146.25;1766499;79;27421;-63
2022/04/05 10:04:05;;;;;;;7.60;1.87;;;;;;;6.78;54.20;99138.57;1756390;79;26021;-65
2022/04/05 10:06:53;;;;;;;;;;;;;;;;;;;;;
2022/04/05 10:09:09;;;;;;;6.90;1.62;;;;;;;6.75;52.72;99162.22;1726556;80;26462;-64
2022/04/05 10:11:37;;;;;;;3.10;1.40;;;;;;;6.71;52.62;99155.33;1760163;79;98199;-63
2022/04/05 10:14:05;;;;;;;7.17;1.82;;;;;;;6.74;51.94;99183.61;1773715;79;25761;-65
2022/04/05 10:16:33;;;;;;;9.18;1.75;;;;;;;6.73;52.82;99181.41;1771092;79;25808;-67
2022/04/05 10:19:04;;;;;;;12.68;2.42;;;;;;;6.77;52.01;99173.66;1765760;79;97916;-64
2022/04/05 10:21:35;;;;;;;11.53;2.00;;;;;;;6.69;51.83;99173.19;1766058;79;25808;-65
2022/04/05 10:24:04;;;;;;;;;;;;;;;6.67;51.89;99166.22;1760697;79;98436;-64
2022/04/05 10:26:34;;;;;;;7.67;1.40;;;;;;;6.73;52.14;99165.44;1761416;79;27491;-64
2022/04/05 10:29:08;;;;;;;8.77;1.80;;;;;;;6.86;51.40;99173.66;1762498;79;98358;-64
2022/04/05 10:31:45;;;;;;;6.40;1.40;;;;;;;6.98;51.88;99157.04;1761338;79;25786;-63
2022/04/05 10:34:32;;;;;;;13.90;1.98;;;;;;;7.14;51.44;99163.75;1759861;79;25793;-64
2022/04/05 10:37:32;;;;;;;;;;;;;;;;;;;;;
2022/04/05 10:40:02;;;;;;;20.62;2.52;;;;;;;7.24;50.40;99164.98;1755925;79;27371;-65
2022/04/05 10:42:38;;;;;;;10.28;1.65;;;;;;;7.28;50.55;99179.88;1766557;79;98342;-63
2022/04/05 10:45:23;;;;;;;5.70;1.82;;;;;;;7.23;49.80;99170.40;1771968;79;25967;-64
2022/04/05 10:48:35;;;;;;;;;;;;;;;;;;;;;
2022/04/05 10:51:05;;;;;;;6.87;1.75;;;;;;;7.18;50.09;99181.77;1757736;79;25804;-63
2022/04/05 10:54:17;;;;;;;6.17;1.40;;;;;;;7.12;50.12;99188.28;1769163;79;98077;-64
2022/04/05 10:56:12;;;;;;;12.18;1.98;;;;;;;7.11;49.93;99177.23;1772360;79;25820;-65
2022/04/05 10:58:42;;;;;;;4.83;1.77;;;;;;;7.23;50.41;99183.25;1767282;79;98540;-67
2022/04/05 11:01:44;;;;;;;7.65;1.80;;;;;;;7.36;49.73;99179.46;1761803;79;26384;-64
2022/04/05 11:04:20;;;;;;;6.97;1.42;;;;;;;7.40;49.27;99179.22;1764968;79;26312;-63
2022/04/05 11:07:09;;;;;;;5.60;1.42;;;;;;;7.40;48.18;99183.21;1760323;79;98157;-64
2022/04/05 11:09:46;;;;;;;12.70;2.17;;;;;;;7.39;48.47;99196.16;1765511;79;25736;-65
2022/04/05 11:12:33;;;;;;;7.70;1.45;;;;;;;7.47;48.25;99178.41;1760634;79;98392;-65
2022/04/05 11:15:05;;;;;;;6.33;1.60;;;;;;;7.56;47.90;99186.39;1767142;79;25796;-65
2022/04/05 11:17:36;;;;;;;5.60;1.37;;;;;;;7.80;48.22;99181.88;1764966;79;98367;-65
2022/04/05 11:20:07;;;;;;;5.00;1.40;;;;;;;8.09;47.79;99192.73;1732755;80;27623;-64
2022/04/05 11:22:38;;;;;;;4.70;1.37;;;;;;;8.25;46.90;99186.05;1766884;79;26574;-63
2022/04/05 11:25:14;;;;;;;4.53;1.55;;;;;;;8.25;46.36;99210.07;1765356;79;99935;-63
2022/04/05 11:27:48;;;;;;;8.08;2.30;;;;;;;8.12;46.10;99200.09;1731516;79;25888;-66
2022/04/05 11:30:28;;;;;;;11.03;1.40;;;;;;;8.04;46.59;99181.45;1766833;79;98062;-65
2022/04/05 11:33:24;;;;;;;5.53;1.80;;;;;;;8.14;46.10;99217.34;1766248;79;27408;-64
2022/04/05 11:36:01;;;;;;;9.68;1.98;;;;;;;8.11;46.13;99197.50;1765737;79;98312;-69
2022/04/05 11:38:38;;;;;;;4.70;1.65;;;;;;;8.10;46.31;99219.80;1765788;79;25797;-67
2022/04/05 11:41:13;;;;;;;7.12;1.70;;;;;;;8.21;45.56;99188.50;1772002;79;98358;-66
2022/04/05 11:43:43;;;;;;;6.08;1.92;;;;;;;8.39;45.49;99205.70;1766355;79;26306;-66
2022/04/05 11:46:16;;;;;;;5.80;1.90;;;;;;;8.52;45.26;99190.30;1775639;79;27504;-67
2022/04/05 11:48:49;;;;;;;8.40;2.40;;;;;;;8.53;45.71;99197.37;1768596;79;98203;-64
2022/04/05 11:51:20;;;;;;;6.03;1.55;;;;;;;8.59;45.51;99191.67;1725854;80;25949;-66